Kezdőlap
METAR-TAF:

METAR-TAF

Repülőterek :

Newport, Vermont, Amerikai Egyesült Államok

földrajzi szélesség: 44-53-20N, földrajzi hosszúság: 072-13-45W, magasság: 283 m

Jelenlegi meteorológiai megfigyelések

A jelentés 28 perccel ezelõtt készült, 08:36 UTC
Észak-északnyugati szél 4 kt
Hőmérséklet 5°C
Páratartalom 100%
Légköri nyomás 1005 hPa
Látótávolság: 16.1 km
Szórványos felhőzet 400 lábon
Szórványos felhőzet 800 lábon
Borult 1200 lábon
esõ

METAR: KEFK 200836Z AUTO 34004KT 10SM RA SCT004 SCT008 OVC012 05/05 A2969 RMK AO2 T00470047

Idő: 05:04 (09:04 UTC)


TAF: hiányzik

Meteorológiai megfigyelések és előrejelzések több, mint 4000 repülőtéren (METAR és TAF jelentéseket).

A térképen piros és sárga pontok jelzik az elérhető meteorológiai állomásokat.

Mozgassa az egeret a pont fölött, hogy megjelenjen az állomás neve.

Azután kattintson az időjárási megfigyelések és előrejelzések megtekintéséhez.

A térkép megváltoztatása: kattintson a fekete keresztel jelölt zöld gombra ráközelítéshez, a vonallal jelölt zöld gombra távolításhoz, vagy a zöld nyilakra a szomszédos térképek eléréséhez.


METAR-TAF: